nws-alerts: Checking more than four warning/county codes can delay the loading of your pages. You should use a cron job to get the data.
EllijayWeather Station Historical Data
Daily Summary for May 8, 2019 Units:  English    Metric   Both
Daily Weekly Monthly Yearly Custom
  High: Low: Average:
Temperature: 78.1 °F 58.5 °F 69.1 °F
Dew Point: 66.2 °F 57.2 °F 62.5 °F
Humidity: 99% 60% 81%
Wind Speed: 4.9mph 0mph 0.3mph
Wind Gust: 9mph - -
Wind- - ESE
Pressure: 30.14 in 30.00 in -
Precipitation: 0 in    
Historical Graphs
 
 
Tabular Data for May 8, 2019
Time Temperature Dew Point Pressure Wind Wind Speed Wind Gust Humidity Rainfall Rate (Hourly) solar
00:04 62.4 °F 60.4 °F 30.14 in Calm     93% 0 in meteobridge W/m2
00:09 62.4 °F 60.4 °F 30.14 in Calm     93% 0 in meteobridge W/m2
00:14 62.2 °F 60.3 °F 30.14 in Calm     93% 0 in meteobridge W/m2
00:19 62.2 °F 60.3 °F 30.14 in Calm     93% 0 in meteobridge W/m2
00:24 62.2 °F 60.3 °F 30.14 in Calm     93% 0 in meteobridge W/m2
00:29 62.2 °F 60.4 °F 30.14 in Calm     94% 0 in meteobridge W/m2
00:34 62.1 °F 60.3 °F 30.14 in Calm     94% 0 in meteobridge W/m2
00:39 62.1 °F 60.3 °F 30.14 in Calm     94% 0 in meteobridge W/m2
00:44 62.1 °F 60.3 °F 30.14 in Calm     94% 0 in meteobridge W/m2
00:49 62.1 °F 60.3 °F 30.13 in Calm     94% 0 in meteobridge W/m2
00:54 61.9 °F 60.1 °F 30.13 in Calm     94% 0 in meteobridge W/m2
00:59 61.9 °F 60.1 °F 30.13 in Calm     94% 0 in meteobridge W/m2
01:04 61.9 °F 60.1 °F 30.13 in Calm     94% 0 in meteobridge W/m2
01:09 61.9 °F 60.1 °F 30.13 in Calm     94% 0 in meteobridge W/m2
01:14 61.7 °F 59.9 °F 30.13 in Calm     94% 0 in meteobridge W/m2
01:19 61.7 °F 59.9 °F 30.13 in Calm     94% 0 in meteobridge W/m2
01:24 61.5 °F 59.7 °F 30.13 in Calm     94% 0 in meteobridge W/m2
01:29 61.5 °F 60.1 °F 30.13 in Calm     95% 0 in meteobridge W/m2
01:34 61.5 °F 60.1 °F 30.13 in Calm     95% 0 in meteobridge W/m2
01:39 61.5 °F 60.1 °F 30.13 in Calm     95% 0 in meteobridge W/m2
01:44 61.5 °F 60.1 °F 30.12 in Calm     95% 0 in meteobridge W/m2
01:49 61.3 °F 59.9 °F 30.12 in Calm     95% 0 in meteobridge W/m2
01:54 61.3 °F 59.9 °F 30.12 in Calm     95% 0 in meteobridge W/m2
01:59 61.3 °F 59.9 °F 30.11 in Calm     95% 0 in meteobridge W/m2
02:04 61.2 °F 59.7 °F 30.11 in Calm     95% 0 in meteobridge W/m2
02:09 61.2 °F 59.7 °F 30.11 in Calm     95% 0 in meteobridge W/m2
02:14 61.2 °F 59.7 °F 30.11 in Calm     95% 0 in meteobridge W/m2
02:19 61.2 °F 59.7 °F 30.11 in Calm     95% 0 in meteobridge W/m2
02:24 61.2 °F 59.7 °F 30.11 in Calm     95% 0 in meteobridge W/m2
02:29 61 °F 59.5 °F 30.11 in Calm     95% 0 in meteobridge W/m2
02:34 61 °F 59.5 °F 30.11 in Calm     95% 0 in meteobridge W/m2
02:39 61 °F 59.9 °F 30.11 in Calm     96% 0 in meteobridge W/m2
02:44 61 °F 59.9 °F 30.11 in Calm     96% 0 in meteobridge W/m2
02:49 61 °F 59.9 °F 30.10 in Calm     96% 0 in meteobridge W/m2
02:54 61 °F 59.9 °F 30.10 in Calm     96% 0 in meteobridge W/m2
02:59 61 °F 59.9 °F 30.10 in Calm     96% 0 in meteobridge W/m2
03:04 61 °F 59.9 °F 30.10 in Calm     96% 0 in meteobridge W/m2
03:09 61 °F 59.9 °F 30.10 in Calm     96% 0 in meteobridge W/m2
03:14 61 °F 59.9 °F 30.09 in Calm     96% 0 in meteobridge W/m2
03:19 61 °F 59.9 °F 30.09 in Calm     96% 0 in meteobridge W/m2
03:24 60.8 °F 59.7 °F 30.09 in Calm     96% 0 in meteobridge W/m2
03:29 60.6 °F 59.2 °F 30.09 in Calm     95% 0 in meteobridge W/m2
03:34 60.4 °F 59 °F 30.09 in Calm     95% 0 in meteobridge W/m2
03:39 60.4 °F 59 °F 30.09 in Calm     95% 0 in meteobridge W/m2
03:44 60.4 °F 59 °F 30.08 in Calm     95% 0 in meteobridge W/m2
03:49 60.1 °F 58.3 °F 30.08 in Calm     94% 0 in meteobridge W/m2
03:54 60.1 °F 58.6 °F 30.08 in Calm     95% 0 in meteobridge W/m2
03:59 59.7 °F 58.3 °F 30.08 in Calm     95% 0 in meteobridge W/m2
04:04 59.9 °F 58.8 °F 30.08 in Calm     96% 0 in meteobridge W/m2
04:09 59.9 °F 58.8 °F 30.08 in Calm     96% 0 in meteobridge W/m2
04:14 60.1 °F 59 °F 30.08 in Calm     96% 0 in meteobridge W/m2
04:19 60.1 °F 59 °F 30.08 in Calm     96% 0 in meteobridge W/m2
04:24 59.9 °F 58.8 °F 30.09 in Calm     96% 0 in meteobridge W/m2
04:29 59.9 °F 58.8 °F 30.09 in Calm     96% 0 in meteobridge W/m2
04:34 59.7 °F 58.6 °F 30.09 in Calm     96% 0 in meteobridge W/m2
04:39 59.9 °F 58.8 °F 30.09 in Calm     96% 0 in meteobridge W/m2
04:44 59.9 °F 59 °F 30.09 in Calm     97% 0 in meteobridge W/m2
04:49 59.7 °F 58.8 °F 30.09 in Calm     97% 0 in meteobridge W/m2
04:54 59.7 °F 58.6 °F 30.09 in Calm     96% 0 in meteobridge W/m2
04:59 59.9 °F 59 °F 30.09 in Calm     97% 0 in meteobridge W/m2
05:04 59.7 °F 58.8 °F 30.09 in Calm     97% 0 in meteobridge W/m2
05:09 59.9 °F 59 °F 30.09 in Calm     97% 0 in meteobridge W/m2
05:14 59.7 °F 58.8 °F 30.09 in Calm     97% 0 in meteobridge W/m2
05:19 59.7 °F 58.8 °F 30.09 in Calm     97% 0 in meteobridge W/m2
05:24 59.7 °F 58.8 °F 30.09 in Calm     97% 0 in meteobridge W/m2
05:29 59.7 °F 58.8 °F 30.09 in Calm     97% 0 in meteobridge W/m2
05:34 59.7 °F 58.8 °F 30.09 in Calm     97% 0 in meteobridge W/m2
05:39 59.7 °F 58.8 °F 30.09 in Calm     97% 0 in meteobridge W/m2
05:44 59.7 °F 58.8 °F 30.09 in Calm     97% 0 in meteobridge W/m2
05:49 59.7 °F 58.8 °F 30.09 in Calm     97% 0 in meteobridge W/m2
05:54 59.7 °F 58.8 °F 30.09 in Calm     97% 0 in meteobridge W/m2
05:59 59.7 °F 58.8 °F 30.09 in Calm     97% 0 in meteobridge W/m2
06:04 59.5 °F 58.5 °F 30.10 in Calm     96% 0 in meteobridge W/m2
06:09 59.5 °F 58.5 °F 30.10 in Calm     96% 0 in meteobridge W/m2
06:14 59.5 °F 58.6 °F 30.10 in Calm     97% 0 in meteobridge W/m2
06:19 59.4 °F 58.3 °F 30.09 in Calm     96% 0 in meteobridge W/m2
06:24 59.2 °F 58.1 °F 30.09 in Calm     96% 0 in meteobridge W/m2
06:29 59 °F 57.9 °F 30.10 in Calm     96% 0 in meteobridge W/m2
06:34 59 °F 57.9 °F 30.10 in Calm     96% 0 in meteobridge W/m2
06:39 58.8 °F 57.7 °F 30.11 in Calm     96% 0 in meteobridge W/m2
06:44 58.8 °F 57.7 °F 30.11 in Calm     96% 0 in meteobridge W/m2
06:49 58.8 °F 57.7 °F 30.11 in Calm     96% 0 in meteobridge W/m2
06:54 58.6 °F 57.6 °F 30.11 in Calm     96% 0 in meteobridge W/m2
06:59 58.6 °F 57.2 °F 30.12 in Calm     95% 0 in meteobridge W/m2
07:04 58.5 °F 57.6 °F 30.13 in Calm     97% 0 in meteobridge W/m2
07:09 58.6 °F 57.7 °F 30.13 in Calm     97% 0 in meteobridge W/m2
07:14 58.6 °F 57.7 °F 30.13 in Calm     97% 0 in meteobridge W/m2
07:19 58.8 °F 57.7 °F 30.13 in Calm     96% 0 in meteobridge W/m2
07:24 58.6 °F 57.6 °F 30.13 in Calm     96% 0 in meteobridge W/m2
07:29 58.6 °F 57.6 °F 30.13 in Calm     96% 0 in meteobridge W/m2
07:34 58.6 °F 57.6 °F 30.13 in Calm     96% 0 in meteobridge W/m2
07:39 58.6 °F 57.6 °F 30.13 in Calm     96% 0 in meteobridge W/m2
07:44 58.6 °F 57.6 °F 30.13 in Calm     96% 0 in meteobridge W/m2
07:49 58.8 °F 57.9 °F 30.13 in Calm     97% 0 in meteobridge W/m2
07:54 59.2 °F 58.3 °F 30.14 in Calm     97% 0 in meteobridge W/m2
07:59 59.4 °F 58.5 °F 30.14 in Calm     97% 0 in meteobridge W/m2
08:04 59.5 °F 58.6 °F 30.13 in Calm     97% 0 in meteobridge W/m2
08:09 60.1 °F 59.5 °F 30.13 in Calm     98% 0 in meteobridge W/m2
08:14 60.4 °F 59.9 °F 30.13 in Calm     98% 0 in meteobridge W/m2
08:19 61.5 °F 61.2 °F 30.13 in Calm     99% 0 in meteobridge W/m2
08:24 62.8 °F 62.4 °F 30.13 in Calm     99% 0 in meteobridge W/m2
08:29 63 °F 62.6 °F 30.13 in Calm     99% 0 in meteobridge W/m2
08:34 63.1 °F 62.2 °F 30.13 in Calm     97% 0 in meteobridge W/m2
08:39 63.5 °F 62.6 °F 30.13 in WNW 2 mph 2 mph 97% 0 in meteobridge W/m2
08:44 64.2 °F 63.1 °F 30.13 in Calm     96% 0 in meteobridge W/m2
08:49 65.1 °F 63.7 °F 30.13 in Calm     95% 0 in meteobridge W/m2
08:54 65.7 °F 63.9 °F 30.12 in Calm     94% 0 in meteobridge W/m2
08:59 66.6 °F 64.4 °F 30.13 in Calm     93% 0 in meteobridge W/m2
09:04 67.3 °F 64.2 °F 30.13 in Calm   1 mph 90% 0 in meteobridge W/m2
09:09 67.8 °F 64.4 °F 30.13 in ENE 0.9 mph 2 mph 89% 0 in meteobridge W/m2
09:14 68.4 °F 64.6 °F 30.13 in Calm   1 mph 88% 0 in meteobridge W/m2
09:19 68.5 °F 64.6 °F 30.13 in Calm   5 mph 87% 0 in meteobridge W/m2
09:24 68.9 °F 64.6 °F 30.13 in SE 0.9 mph 1 mph 86% 0 in meteobridge W/m2
09:29 69.1 °F 64.8 °F 30.13 in Calm   1 mph 86% 0 in meteobridge W/m2
09:34 69.3 °F 64.9 °F 30.13 in Calm   1 mph 86% 0 in meteobridge W/m2
09:39 69.4 °F 64.8 °F 30.13 in Calm   1 mph 85% 0 in meteobridge W/m2
09:44 69.6 °F 65.3 °F 30.13 in ESE 0.9 mph 1 mph 86% 0 in meteobridge W/m2
09:49 69.6 °F 64.6 °F 30.13 in Calm   1 mph 84% 0 in meteobridge W/m2
09:54 69.6 °F 64.6 °F 30.12 in Calm     84% 0 in meteobridge W/m2
09:59 70 °F 64.9 °F 30.12 in Calm   1 mph 84% 0 in meteobridge W/m2
10:04 70.2 °F 65.1 °F 30.12 in Calm     84% 0 in meteobridge W/m2
10:09 70.3 °F 64.9 °F 30.11 in Calm     83% 0 in meteobridge W/m2
10:14 70.7 °F 64.9 °F 30.11 in Calm   5 mph 82% 0 in meteobridge W/m2
10:19 70.7 °F 64.9 °F 30.12 in Calm   5 mph 82% 0 in meteobridge W/m2
10:24 70.9 °F 64.8 °F 30.12 in Calm   1 mph 81% 0 in meteobridge W/m2
10:29 71.1 °F 64.9 °F 30.12 in SE 0.9 mph 2 mph 81% 0 in meteobridge W/m2
10:34 71.2 °F 65.1 °F 30.12 in ESE 0.9 mph 4 mph 81% 0 in meteobridge W/m2
10:39 71.2 °F 64.8 °F 30.12 in Calm   5 mph 80% 0 in meteobridge W/m2
10:44 71.4 °F 64.9 °F 30.12 in Calm   1 mph 80% 0 in meteobridge W/m2
10:49 71.8 °F 64.9 °F 30.12 in ESE 0.9 mph 5 mph 79% 0 in meteobridge W/m2
10:54 72.1 °F 65.7 °F 30.12 in ESE 0.9 mph 4 mph 80% 0 in meteobridge W/m2
10:59 72.1 °F 65.3 °F 30.12 in Calm   2 mph 79% 0 in meteobridge W/m2
11:04 72.1 °F 65.7 °F 30.12 in Calm   2 mph 80% 0 in meteobridge W/m2
11:09 72.3 °F 65.5 °F 30.11 in Calm   2 mph 79% 0 in meteobridge W/m2
11:14 73 °F 65.8 °F 30.12 in Calm   5 mph 78% 0 in meteobridge W/m2
11:19 73.2 °F 65.1 °F 30.12 in Calm   2 mph 76% 0 in meteobridge W/m2
11:24 73.6 °F 65.8 °F 30.12 in Calm   5 mph 77% 0 in meteobridge W/m2
11:29 73.8 °F 65.3 °F 30.12 in Calm   1 mph 75% 0 in meteobridge W/m2
11:34 73.9 °F 66.2 °F 30.12 in Calm     77% 0 in meteobridge W/m2
11:39 74.5 °F 66 °F 30.12 in Calm   5 mph 75% 0 in meteobridge W/m2
11:44 74.5 °F 65.7 °F 30.12 in Calm   1 mph 74% 0 in meteobridge W/m2
11:49 74.8 °F 66 °F 30.12 in Calm   5 mph 74% 0 in meteobridge W/m2
11:54 74.7 °F 65.5 °F 30.12 in ESE 0.9 mph 4 mph 73% 0 in meteobridge W/m2
11:59 74.5 °F 65.3 °F 30.12 in ESE 2 mph 4 mph 73% 0 in meteobridge W/m2
12:04 74.3 °F 65.1 °F 30.12 in East 2 mph 4 mph 73% 0 in meteobridge W/m2
12:09 74.5 °F 65.7 °F 30.11 in East 0.9 mph 2 mph 74% 0 in meteobridge W/m2
12:14 74.7 °F 65.8 °F 30.11 in Calm   4 mph 74% 0 in meteobridge W/m2
12:19 75 °F 65.3 °F 30.11 in SE 0.9 mph 5 mph 72% 0 in meteobridge W/m2
12:24 74.8 °F 65.1 °F 30.11 in East 2 mph 4 mph 72% 0 in meteobridge W/m2
12:29 75 °F 65.8 °F 30.11 in Calm     73% 0 in meteobridge W/m2
12:34 75.6 °F 65.8 °F 30.11 in Calm   5 mph 72% 0 in meteobridge W/m2
12:39 75.7 °F 64.8 °F 30.11 in East 4 mph 4 mph 69% 0 in meteobridge W/m2
12:44 75.7 °F 64.4 °F 30.11 in SE 2 mph 6 mph 68% 0 in meteobridge W/m2
12:49 75.7 °F 65.3 °F 30.11 in Calm   2 mph 70% 0 in meteobridge W/m2
12:54 75.7 °F 64.8 °F 30.10 in Calm   1 mph 69% 0 in meteobridge W/m2
12:59 75.9 °F 65.5 °F 30.10 in ESE 0.9 mph 5 mph 70% 0 in meteobridge W/m2
13:04 75.9 °F 64.6 °F 30.10 in SE 2 mph 6 mph 68% 0 in meteobridge W/m2
13:09 75.7 °F 64.8 °F 30.09 in Calm   4 mph 69% 0 in meteobridge W/m2
13:14 75.7 °F 64 °F 30.09 in Calm   6 mph 67% 0 in meteobridge W/m2
13:19 75.9 °F 64.6 °F 30.09 in Calm   1 mph 68% 0 in meteobridge W/m2
13:24 76.1 °F 65.1 °F 30.09 in SE 4.9 mph 5 mph 69% 0 in meteobridge W/m2
13:29 75.7 °F 64.4 °F 30.09 in Calm   4 mph 68% 0 in meteobridge W/m2
13:34 76.1 °F 64.4 °F 30.09 in Calm   4 mph 67% 0 in meteobridge W/m2
13:39 76.3 °F 64 °F 30.08 in SE 0.9 mph 4 mph 66% 0 in meteobridge W/m2
13:44 76.3 °F 64.6 °F 30.08 in Calm   2 mph 67% 0 in meteobridge W/m2
13:49 76.3 °F 64.6 °F 30.07 in ESE 2 mph 2 mph 67% 0 in meteobridge W/m2
13:54 76.5 °F 65.1 °F 30.07 in Calm   5 mph 68% 0 in meteobridge W/m2
13:59 76.6 °F 64.9 °F 30.07 in Calm   5 mph 67% 0 in meteobridge W/m2
14:04 76.8 °F 64.9 °F 30.07 in Calm   4 mph 67% 0 in meteobridge W/m2
14:09 77 °F 64.4 °F 30.07 in SE 2 mph 6 mph 65% 0 in meteobridge W/m2
14:14 76.8 °F 64.2 °F 30.06 in Calm   4 mph 65% 0 in meteobridge W/m2
14:19 76.8 °F 65.5 °F 30.06 in SE 4 mph 4 mph 68% 0 in meteobridge W/m2
14:24 77.4 °F 64.8 °F 30.06 in Calm   2 mph 65% 0 in meteobridge W/m2
14:29 77.4 °F 65.1 °F 30.05 in East 4.9 mph 9 mph 66% 0 in meteobridge W/m2
14:34 76.8 °F 65.5 °F 30.05 in Calm   1 mph 68% 0 in meteobridge W/m2
14:39 77.2 °F 64 °F 30.05 in ESE 2 mph 4 mph 64% 0 in meteobridge W/m2
14:44 77.2 °F 64.6 °F 30.05 in Calm   4 mph 65% 0 in meteobridge W/m2
14:49 76.8 °F 63.3 °F 30.05 in East 0.9 mph 2 mph 63% 0 in meteobridge W/m2
14:54 76.8 °F 63.3 °F 30.05 in ESE 2 mph 2 mph 63% 0 in meteobridge W/m2
14:59 77 °F 63.5 °F 30.05 in ESE 2 mph 4 mph 63% 0 in meteobridge W/m2
15:04 77.4 °F 63.3 °F 30.05 in Calm   2 mph 62% 0 in meteobridge W/m2
15:09 77.5 °F 64.4 °F 30.05 in ESE 4.9 mph 5 mph 64% 0 in meteobridge W/m2
15:14 77.4 °F 63.3 °F 30.05 in Calm     62% 0 in meteobridge W/m2
15:19 77.4 °F 63.9 °F 30.05 in Calm   5 mph 63% 0 in meteobridge W/m2
15:24 77.2 °F 63.7 °F 30.05 in Calm   4 mph 63% 0 in meteobridge W/m2
15:29 76.8 °F 64.2 °F 30.04 in Calm     65% 0 in meteobridge W/m2
15:34 77 °F 64.4 °F 30.05 in SE 0.9 mph 4 mph 65% 0 in meteobridge W/m2
15:39 77 °F 63.5 °F 30.04 in Calm   2 mph 63% 0 in meteobridge W/m2
15:44 77.2 °F 63.7 °F 30.04 in Calm   4 mph 63% 0 in meteobridge W/m2
15:49 77.4 °F 64.2 °F 30.04 in Calm     64% 0 in meteobridge W/m2
15:54 77.2 °F 64 °F 30.03 in Calm     64% 0 in meteobridge W/m2
15:59 77.4 °F 63.9 °F 30.03 in Calm   6 mph 63% 0 in meteobridge W/m2
16:04 77.5 °F 63.9 °F 30.03 in SE 0.9 mph 4 mph 63% 0 in meteobridge W/m2
16:09 77.5 °F 63.9 °F 30.03 in Calm   6 mph 63% 0 in meteobridge W/m2
16:14 77.9 °F 63.3 °F 30.03 in East 0.9 mph 2 mph 61% 0 in meteobridge W/m2
16:19 78.1 °F 63.5 °F 30.03 in East 0.9 mph 1 mph 61% 0 in meteobridge W/m2
16:24 78.1 °F 64 °F 30.03 in Calm   5 mph 62% 0 in meteobridge W/m2
16:29 78.1 °F 64 °F 30.02 in Calm   2 mph 62% 0 in meteobridge W/m2
16:34 78.1 °F 64.4 °F 30.03 in Calm   2 mph 63% 0 in meteobridge W/m2
16:39 78.1 °F 64.4 °F 30.02 in Calm   5 mph 63% 0 in meteobridge W/m2
16:44 77.7 °F 62.8 °F 30.03 in Calm   4 mph 60% 0 in meteobridge W/m2
16:49 77.4 °F 62.8 °F 30.02 in ESE 2 mph 4 mph 61% 0 in meteobridge W/m2
16:54 77.4 °F 63.3 °F 30.02 in Calm   1 mph 62% 0 in meteobridge W/m2
16:59 77.5 °F 63.9 °F 30.01 in Calm   1 mph 63% 0 in meteobridge W/m2
17:04 77.7 °F 63.7 °F 30.01 in ESE 2 mph 5 mph 62% 0 in meteobridge W/m2
17:09 77.7 °F 63.7 °F 30.01 in ESE 0.9 mph 1 mph 62% 0 in meteobridge W/m2
17:14 77.9 °F 63.9 °F 30.01 in Calm     62% 0 in meteobridge W/m2
17:19 78.1 °F 64 °F 30.01 in ESE 0.9 mph 2 mph 62% 0 in meteobridge W/m2
17:24 77.9 °F 63.3 °F 30.01 in ESE 0.9 mph 1 mph 61% 0 in meteobridge W/m2
17:29 77.7 °F 63.1 °F 30.01 in Calm   2 mph 61% 0 in meteobridge W/m2
17:34 77.9 °F 63.9 °F 30.01 in ESE 2 mph 2 mph 62% 0 in meteobridge W/m2
17:39 78.1 °F 63.5 °F 30.01 in Calm   4 mph 61% 0 in meteobridge W/m2
17:44 77.9 °F 64.2 °F 30.01 in East 2 mph 2 mph 63% 0 in meteobridge W/m2
17:49 77.5 °F 63.5 °F 30.01 in Calm     62% 0 in meteobridge W/m2
17:54 77.5 °F 63.9 °F 30.01 in Calm   1 mph 63% 0 in meteobridge W/m2
17:59 77.5 °F 64.4 °F 30.01 in Calm   5 mph 64% 0 in meteobridge W/m2
18:04 77.7 °F 64.9 °F 30.01 in Calm   1 mph 65% 0 in meteobridge W/m2
18:09 77.7 °F 64 °F 30.01 in Calm   5 mph 63% 0 in meteobridge W/m2
18:14 77.7 °F 64 °F 30.01 in Calm   2 mph 63% 0 in meteobridge W/m2
18:19 77.5 °F 63.9 °F 30.01 in Calm   2 mph 63% 0 in meteobridge W/m2
18:24 77.5 °F 63.9 °F 30.01 in Calm     63% 0 in meteobridge W/m2
18:29 77.5 °F 63.9 °F 30.01 in Calm   2 mph 63% 0 in meteobridge W/m2
18:34 77.4 °F 63.9 °F 30.01 in Calm   1 mph 63% 0 in meteobridge W/m2
18:39 77.4 °F 64.2 °F 30.01 in Calm     64% 0 in meteobridge W/m2
18:44 77.4 °F 64.2 °F 30.01 in Calm   1 mph 64% 0 in meteobridge W/m2
18:49 77.4 °F 63.9 °F 30.01 in ESE 2 mph 5 mph 63% 0 in meteobridge W/m2
18:54 77.2 °F 64.6 °F 30.01 in Calm     65% 0 in meteobridge W/m2
18:59 77.2 °F 64 °F 30.01 in Calm   2 mph 64% 0 in meteobridge W/m2
19:04 77.2 °F 64 °F 30.01 in Calm     64% 0 in meteobridge W/m2
19:09 77 °F 64.8 °F 30.01 in Calm     66% 0 in meteobridge W/m2
19:14 76.8 °F 64.2 °F 30.01 in Calm   2 mph 65% 0 in meteobridge W/m2
19:19 76.6 °F 64.4 °F 30.00 in Calm     66% 0 in meteobridge W/m2
19:24 76.5 °F 64.2 °F 30.00 in Calm   1 mph 66% 0 in meteobridge W/m2
19:29 76.3 °F 64 °F 30.00 in Calm     66% 0 in meteobridge W/m2
19:34 76.3 °F 64 °F 30.00 in Calm   2 mph 66% 0 in meteobridge W/m2
19:38 75.9 °F 63.7 °F 30.00 in Calm     66% 0 in meteobridge W/m2
19:44 75.9 °F 63.7 °F 30.00 in Calm     66% 0 in meteobridge W/m2
19:49 75.7 °F 64 °F 30.00 in Calm     67% 0 in meteobridge W/m2
19:54 75.4 °F 63.7 °F 30.00 in Calm     67% 0 in meteobridge W/m2
19:59 75.2 °F 63.9 °F 30.00 in Calm     68% 0 in meteobridge W/m2
20:04 74.8 °F 64 °F 30.01 in Calm     69% 0 in meteobridge W/m2
20:09 74.7 °F 63.9 °F 30.01 in Calm     69% 0 in meteobridge W/m2
20:14 74.5 °F 64 °F 30.01 in Calm     70% 0 in meteobridge W/m2
20:19 74.3 °F 64.2 °F 30.01 in Calm   1 mph 71% 0 in meteobridge W/m2
20:24 73.9 °F 63.9 °F 30.01 in Calm     71% 0 in meteobridge W/m2
20:29 73.8 °F 64.2 °F 30.01 in Calm     72% 0 in meteobridge W/m2
20:34 73.6 °F 64.4 °F 30.02 in Calm   1 mph 73% 0 in meteobridge W/m2
20:39 73.4 °F 64.2 °F 30.02 in Calm   1 mph 73% 0 in meteobridge W/m2
20:44 73.4 °F 64.2 °F 30.02 in Calm     73% 0 in meteobridge W/m2
20:49 73.2 °F 64.4 °F 30.02 in Calm     74% 0 in meteobridge W/m2
20:54 73 °F 64.6 °F 30.02 in Calm     75% 0 in meteobridge W/m2
20:59 72.7 °F 64.8 °F 30.02 in Calm     76% 0 in meteobridge W/m2
21:04 72.3 °F 64.8 °F 30.02 in Calm     77% 0 in meteobridge W/m2
21:09 72 °F 64.8 °F 30.02 in Calm     78% 0 in meteobridge W/m2
21:14 71.4 °F 64.6 °F 30.03 in Calm     79% 0 in meteobridge W/m2
21:19 71.1 °F 64.2 °F 30.03 in Calm     79% 0 in meteobridge W/m2
21:24 70.7 °F 64.2 °F 30.03 in Calm     80% 0 in meteobridge W/m2
21:29 70.5 °F 64 °F 30.03 in Calm     80% 0 in meteobridge W/m2
21:34 70.2 °F 64 °F 30.03 in Calm     81% 0 in meteobridge W/m2
21:39 70 °F 64.2 °F 30.03 in Calm     82% 0 in meteobridge W/m2
21:44 69.8 °F 64 °F 30.03 in Calm     82% 0 in meteobridge W/m2
21:49 69.6 °F 63.9 °F 30.04 in Calm     82% 0 in meteobridge W/m2
21:54 70 °F 64.2 °F 30.04 in Calm     82% 0 in meteobridge W/m2
21:59 70 °F 64.2 °F 30.04 in Calm     82% 0 in meteobridge W/m2
22:04 70 °F 64.2 °F 30.05 in Calm     82% 0 in meteobridge W/m2
22:09 69.8 °F 64.4 °F 30.05 in Calm     83% 0 in meteobridge W/m2
22:14 69.6 °F 63.9 °F 30.05 in Calm     82% 0 in meteobridge W/m2
22:19 69.8 °F 64 °F 30.05 in Calm     82% 0 in meteobridge W/m2
22:24 69.8 °F 64.4 °F 30.05 in Calm     83% 0 in meteobridge W/m2
22:29 69.6 °F 64.2 °F 30.04 in Calm     83% 0 in meteobridge W/m2
22:34 69.6 °F 64.2 °F 30.04 in Calm     83% 0 in meteobridge W/m2
22:39 69.6 °F 63.9 °F 30.05 in Calm     82% 0 in meteobridge W/m2
22:44 69.6 °F 64.2 °F 30.04 in Calm     83% 0 in meteobridge W/m2
22:49 69.6 °F 64.2 °F 30.04 in Calm     83% 0 in meteobridge W/m2
22:54 69.6 °F 64.2 °F 30.04 in Calm     83% 0 in meteobridge W/m2
22:59 69.4 °F 64 °F 30.04 in Calm     83% 0 in meteobridge W/m2
23:04 69.4 °F 64 °F 30.04 in Calm     83% 0 in meteobridge W/m2
23:09 69.4 °F 64 °F 30.04 in Calm     83% 0 in meteobridge W/m2
23:14 69.4 °F 64 °F 30.04 in Calm     83% 0 in meteobridge W/m2
23:19 69.3 °F 63.9 °F 30.04 in Calm     83% 0 in meteobridge W/m2
23:24 69.3 °F 64.2 °F 30.04 in Calm     84% 0 in meteobridge W/m2
23:29 69.1 °F 64 °F 30.04 in Calm     84% 0 in meteobridge W/m2
23:34 68.7 °F 63.7 °F 30.04 in Calm     84% 0 in meteobridge W/m2
23:39 68.7 °F 63.7 °F 30.03 in Calm     84% 0 in meteobridge W/m2
23:44 68.7 °F 63.7 °F 30.03 in Calm     84% 0 in meteobridge W/m2
23:49 69.1 °F 64 °F 30.03 in Calm     84% 0 in meteobridge W/m2
23:54 69.1 °F 64 °F 30.03 in Calm     84% 0 in meteobridge W/m2
23:59 69.3 °F 64.2 °F 30.03 in Calm     84% 0 in meteobridge W/m2
EllijayWeather
Compliments of Weather Underground - 2.5 mb